createdAt,value
2023-03-26T00:01:37.291Z,8.00
2023-03-26T00:04:06.625Z,8.00
2023-03-26T00:06:38.839Z,8.00
2023-03-26T00:09:13.276Z,8.00
2023-03-26T00:11:40.808Z,8.00
2023-03-26T00:14:09.393Z,8.00
2023-03-26T00:16:36.477Z,7.90
2023-03-26T00:19:04.048Z,7.90
2023-03-26T00:21:30.914Z,7.90
2023-03-26T00:24:05.009Z,7.80
2023-03-26T00:26:37.565Z,7.80
2023-03-26T00:29:05.210Z,7.80
2023-03-26T00:31:32.874Z,7.80
2023-03-26T00:34:03.213Z,8.00
2023-03-26T00:36:30.016Z,7.90
2023-03-26T00:38:56.853Z,7.80
2023-03-26T00:41:26.476Z,7.70
2023-03-26T00:43:56.676Z,7.70
2023-03-26T00:46:25.401Z,7.80
2023-03-26T00:48:52.365Z,7.80
2023-03-26T00:51:20.794Z,7.80
2023-03-26T00:53:49.852Z,7.80
2023-03-26T00:56:17.351Z,7.80
2023-03-26T00:58:45.022Z,7.80
2023-03-26T01:01:16.330Z,7.80
2023-03-26T01:03:57.065Z,7.80
2023-03-26T01:06:36.458Z,7.80
2023-03-26T01:09:37.521Z,7.70
2023-03-26T01:12:08.455Z,7.80
2023-03-26T01:14:37.612Z,7.80
2023-03-26T01:17:06.863Z,7.80
2023-03-26T01:19:53.065Z,7.80
2023-03-26T01:22:27.324Z,7.80
2023-03-26T01:24:56.410Z,7.90
2023-03-26T01:27:41.956Z,7.80
2023-03-26T01:30:33.528Z,7.80
2023-03-26T01:33:36.525Z,7.90
2023-03-26T01:36:25.678Z,7.90
2023-03-26T01:39:06.181Z,7.90
2023-03-26T01:41:51.143Z,7.80
2023-03-26T01:44:34.074Z,7.90
2023-03-26T01:47:01.697Z,7.80
2023-03-26T01:49:29.203Z,7.80
2023-03-26T01:51:58.072Z,8.00
2023-03-26T01:54:28.224Z,8.00
2023-03-26T01:57:00.815Z,8.00
2023-03-26T01:59:42.203Z,8.00
2023-03-26T02:02:32.571Z,8.00
2023-03-26T02:05:26.075Z,8.00
2023-03-26T02:08:12.448Z,8.00
2023-03-26T02:10:44.296Z,7.90
2023-03-26T02:13:12.458Z,7.80
2023-03-26T02:15:55.638Z,7.90
2023-03-26T02:18:24.289Z,7.80
2023-03-26T02:20:55.679Z,7.80
2023-03-26T02:23:22.613Z,7.80
2023-03-26T02:25:49.563Z,7.80
2023-03-26T02:28:17.040Z,7.80
2023-03-26T02:30:45.809Z,7.80
2023-03-26T02:33:15.344Z,7.90
2023-03-26T02:35:45.960Z,7.80
2023-03-26T02:38:14.473Z,7.90
2023-03-26T02:40:41.893Z,7.80
2023-03-26T02:43:08.975Z,7.80
2023-03-26T02:45:36.752Z,7.80
2023-03-26T02:48:22.502Z,7.80
2023-03-26T02:50:54.561Z,7.80
2023-03-26T02:53:37.561Z,7.80
2023-03-26T02:56:33.920Z,7.80
2023-03-26T02:59:17.785Z,7.80
2023-03-26T03:01:48.225Z,7.80
2023-03-26T03:04:17.958Z,7.80
2023-03-26T03:06:45.731Z,7.80
2023-03-26T03:09:13.028Z,7.80
2023-03-26T03:12:06.425Z,7.70
2023-03-26T03:14:33.197Z,7.60
2023-03-26T03:17:00.029Z,7.60
2023-03-26T03:19:27.048Z,7.60
2023-03-26T03:21:54.505Z,7.60
2023-03-26T03:24:21.297Z,7.50
2023-03-26T03:26:50.234Z,7.50
2023-03-26T03:29:30.440Z,7.50
2023-03-26T03:32:03.236Z,7.40
2023-03-26T03:34:42.418Z,7.40
2023-03-26T03:37:09.251Z,7.40
2023-03-26T03:39:45.106Z,7.40
2023-03-26T03:42:15.011Z,7.40
2023-03-26T03:44:41.955Z,7.50
2023-03-26T03:47:22.832Z,7.40
2023-03-26T03:49:50.301Z,7.40
2023-03-26T03:52:18.104Z,7.40
2023-03-26T03:54:45.281Z,7.40
2023-03-26T03:57:22.026Z,7.50
2023-03-26T04:00:01.756Z,7.50
2023-03-26T04:02:42.860Z,7.40
2023-03-26T04:05:11.765Z,7.50
2023-03-26T04:07:45.182Z,7.40
2023-03-26T04:10:34.708Z,7.20
2023-03-26T04:13:37.098Z,7.20
2023-03-26T04:16:17.997Z,7.20
2023-03-26T04:18:46.412Z,7.20
2023-03-26T04:21:15.939Z,7.20
2023-03-26T04:23:44.017Z,7.20
2023-03-26T04:26:24.409Z,7.20
2023-03-26T04:29:13.737Z,7.20
2023-03-26T04:31:43.000Z,7.20
2023-03-26T04:34:24.108Z,7.20
2023-03-26T04:37:18.964Z,7.20
2023-03-26T04:39:52.100Z,7.20
2023-03-26T04:42:37.686Z,7.20
2023-03-26T04:45:33.670Z,7.20
2023-03-26T04:48:00.707Z,7.20
2023-03-26T04:50:27.716Z,7.30
2023-03-26T04:52:57.202Z,7.30
2023-03-26T04:56:11.833Z,7.40
2023-03-26T04:59:04.392Z,7.20
2023-03-26T05:01:37.785Z,7.20
2023-03-26T05:04:05.634Z,7.20
2023-03-26T05:06:34.273Z,7.20
2023-03-26T05:09:06.071Z,7.20
2023-03-26T05:11:52.916Z,7.20
2023-03-26T05:14:20.552Z,7.20
2023-03-26T05:16:53.283Z,7.20
2023-03-26T05:19:21.146Z,7.20
2023-03-26T05:21:48.219Z,7.20
2023-03-26T05:24:15.086Z,7.20
2023-03-26T05:26:41.983Z,7.20
2023-03-26T05:29:08.980Z,7.20
2023-03-26T05:31:41.263Z,7.20
2023-03-26T05:34:08.155Z,7.20
2023-03-26T05:36:35.437Z,7.30
2023-03-26T05:39:26.800Z,7.40
2023-03-26T05:42:13.523Z,7.40
2023-03-26T05:45:00.812Z,7.40
2023-03-26T05:47:30.047Z,7.50
2023-03-26T05:49:57.204Z,7.60
2023-03-26T05:52:24.940Z,7.60
2023-03-26T05:55:27.664Z,7.60
2023-03-26T05:58:30.639Z,7.60
2023-03-26T06:01:17.080Z,7.60
2023-03-26T06:04:02.985Z,7.60
2023-03-26T06:06:35.518Z,7.60
2023-03-26T06:09:04.499Z,7.60
2023-03-26T06:11:32.059Z,7.50
2023-03-26T06:14:00.994Z,7.50
2023-03-26T06:16:28.321Z,7.40
2023-03-26T06:19:24.653Z,7.40
2023-03-26T06:22:12.354Z,7.40
2023-03-26T06:24:57.857Z,7.30
2023-03-26T06:27:56.573Z,7.40
2023-03-26T06:30:43.312Z,7.30
2023-03-26T06:33:24.421Z,7.30
2023-03-26T06:35:51.739Z,7.30
2023-03-26T06:38:18.979Z,7.30
2023-03-26T06:40:46.065Z,7.30
2023-03-26T06:43:39.894Z,7.30
2023-03-26T06:46:32.991Z,7.50
2023-03-26T06:49:18.310Z,7.60
2023-03-26T06:52:12.963Z,7.60
2023-03-26T06:54:49.638Z,7.60
2023-03-26T06:57:37.119Z,7.60
2023-03-26T07:00:26.657Z,7.80
2023-03-26T07:03:12.126Z,7.80
2023-03-26T07:06:05.423Z,7.70
2023-03-26T07:08:52.525Z,7.80
2023-03-26T07:11:31.349Z,7.80
2023-03-26T07:14:16.596Z,7.80
2023-03-26T07:16:51.516Z,7.70
2023-03-26T07:19:41.188Z,7.60
2023-03-26T07:22:15.936Z,7.50
2023-03-26T07:25:06.374Z,7.20
2023-03-26T07:28:07.992Z,6.90
2023-03-26T07:31:22.916Z,6.90
2023-03-26T07:34:15.976Z,6.80
2023-03-26T07:37:14.566Z,6.70
2023-03-26T07:40:46.270Z,6.90
2023-03-26T07:44:09.445Z,7.00
2023-03-26T07:47:01.657Z,7.00
2023-03-26T07:49:40.536Z,6.90
2023-03-26T07:52:27.004Z,7.00
2023-03-26T07:54:59.408Z,7.20
2023-03-26T07:58:22.714Z,7.20
2023-03-26T08:02:05.475Z,7.20
2023-03-26T08:04:44.607Z,7.40
2023-03-26T08:07:50.769Z,7.50
2023-03-26T08:10:41.157Z,7.50
2023-03-26T08:13:14.180Z,7.60
2023-03-26T08:16:15.594Z,7.60
2023-03-26T08:18:57.288Z,7.60
2023-03-26T08:21:31.755Z,7.80
2023-03-26T08:24:23.770Z,7.90
2023-03-26T08:27:22.678Z,8.10
2023-03-26T08:30:07.470Z,8.30
2023-03-26T08:32:34.660Z,8.20
2023-03-26T08:35:03.938Z,8.40
2023-03-26T08:37:31.137Z,8.50
2023-03-26T08:39:57.845Z,8.30
2023-03-26T08:42:48.685Z,8.40
2023-03-26T08:45:51.796Z,8.60
2023-03-26T08:48:28.920Z,8.60
2023-03-26T08:51:23.523Z,8.80
2023-03-26T08:54:09.111Z,8.80
2023-03-26T08:56:49.464Z,8.60
2023-03-26T08:59:51.514Z,8.90
2023-03-26T09:02:50.387Z,9.00
2023-03-26T09:05:30.173Z,9.00
2023-03-26T09:08:15.857Z,9.20
2023-03-26T09:11:09.232Z,9.20
2023-03-26T09:13:42.078Z,9.20
2023-03-26T09:17:03.866Z,9.00
2023-03-26T09:19:43.299Z,9.20
2023-03-26T09:22:25.400Z,9.20
2023-03-26T09:25:19.906Z,9.20
2023-03-26T09:28:01.609Z,9.40
2023-03-26T09:30:34.250Z,9.60
2023-03-26T09:33:26.387Z,9.70
2023-03-26T09:36:17.324Z,9.50
2023-03-26T09:38:53.798Z,9.50
2023-03-26T09:41:57.477Z,9.60
2023-03-26T09:44:43.801Z,9.70
2023-03-26T09:47:37.470Z,9.60
2023-03-26T09:50:23.806Z,9.70
2023-03-26T09:53:15.608Z,10.00
2023-03-26T09:55:50.906Z,10.40
2023-03-26T09:58:31.007Z,10.10
2023-03-26T10:01:20.302Z,10.10
2023-03-26T10:04:27.280Z,10.30
2023-03-26T10:07:08.677Z,10.40
2023-03-26T10:09:54.388Z,10.70
2023-03-26T10:12:56.048Z,10.90
2023-03-26T10:15:53.377Z,10.70
2023-03-26T10:18:27.550Z,10.80
2023-03-26T10:21:07.688Z,10.70
2023-03-26T10:23:53.362Z,10.80
2023-03-26T10:27:13.963Z,10.80
2023-03-26T10:29:56.120Z,10.90
2023-03-26T10:32:39.618Z,10.60
2023-03-26T10:35:17.319Z,10.20
2023-03-26T10:37:50.129Z,10.00
2023-03-26T10:40:17.135Z,10.00
2023-03-26T10:42:56.450Z,9.80
2023-03-26T10:45:51.353Z,9.90
2023-03-26T10:48:51.328Z,9.90
2023-03-26T10:51:31.555Z,9.70
2023-03-26T10:54:06.396Z,9.90
2023-03-26T10:56:39.197Z,10.00
2023-03-26T10:59:10.302Z,10.00
2023-03-26T11:01:59.581Z,10.00
2023-03-26T11:04:41.277Z,10.20
2023-03-26T11:07:23.150Z,10.00
2023-03-26T11:10:02.304Z,10.00
2023-03-26T11:12:32.056Z,10.00
2023-03-26T11:15:07.744Z,10.00
2023-03-26T11:17:50.814Z,9.90
2023-03-26T11:20:21.085Z,10.00
2023-03-26T11:23:04.357Z,10.00
2023-03-26T11:25:58.350Z,10.00
2023-03-26T11:29:04.239Z,9.80
2023-03-26T11:31:52.493Z,9.90
2023-03-26T11:34:25.858Z,9.90
2023-03-26T11:36:56.358Z,10.00
2023-03-26T11:39:37.681Z,10.00
2023-03-26T11:42:10.834Z,10.10
2023-03-26T11:44:53.078Z,10.20
2023-03-26T11:47:24.867Z,10.30
2023-03-26T11:49:55.164Z,10.30
2023-03-26T11:52:22.278Z,10.40
2023-03-26T11:54:50.612Z,10.60
2023-03-26T11:57:25.824Z,10.60
2023-03-26T12:00:19.408Z,10.60
2023-03-26T12:02:47.669Z,10.60
2023-03-26T12:05:21.631Z,10.80
2023-03-26T12:07:59.985Z,10.70
2023-03-26T12:10:37.789Z,10.60
2023-03-26T12:13:35.349Z,10.70
2023-03-26T12:16:12.031Z,10.80
2023-03-26T12:18:41.121Z,10.90
2023-03-26T12:21:15.979Z,11.10
2023-03-26T12:23:56.100Z,11.10
2023-03-26T12:26:56.840Z,10.90
2023-03-26T12:29:23.631Z,10.70
2023-03-26T12:31:58.875Z,10.70
2023-03-26T12:34:35.437Z,10.70
2023-03-26T12:37:04.557Z,10.50
2023-03-26T12:40:09.517Z,10.20
2023-03-26T12:44:48.504Z,10.20
2023-03-26T12:45:23.754Z,10.00
2023-03-26T12:47:58.182Z,10.00
2023-03-26T12:50:43.020Z,10.10
2023-03-26T12:53:52.636Z,10.00
2023-03-26T12:56:27.253Z,10.00
2023-03-26T12:59:25.578Z,10.00
2023-03-26T13:02:03.741Z,9.90
2023-03-26T13:04:58.436Z,9.90
2023-03-26T13:07:37.386Z,9.70
2023-03-26T13:10:11.266Z,9.50
2023-03-26T13:12:55.479Z,9.40
2023-03-26T13:15:43.353Z,9.40
2023-03-26T13:18:37.830Z,9.20
2023-03-26T13:21:17.072Z,9.00
2023-03-26T13:24:13.066Z,8.90
2023-03-26T13:26:50.425Z,8.80
2023-03-26T13:29:56.187Z,8.60
2023-03-26T13:32:46.808Z,8.60
2023-03-26T13:35:27.312Z,8.60
2023-03-26T13:38:01.002Z,8.50
2023-03-26T13:40:33.675Z,8.50
2023-03-26T13:43:28.404Z,8.30
2023-03-26T13:46:07.724Z,8.20
2023-03-26T13:48:42.938Z,8.10
2023-03-26T13:51:18.483Z,8.10
2023-03-26T13:53:55.215Z,8.20
2023-03-26T13:56:29.414Z,8.20
2023-03-26T13:59:12.706Z,8.30
2023-03-26T14:01:48.708Z,8.20
2023-03-26T14:04:32.553Z,8.10
2023-03-26T14:07:09.717Z,8.10
2023-03-26T14:09:51.176Z,8.00
2023-03-26T14:12:24.112Z,7.90
2023-03-26T14:15:01.875Z,7.90
2023-03-26T14:17:44.868Z,7.80
2023-03-26T14:20:17.682Z,7.80
2023-03-26T14:23:18.292Z,7.80
2023-03-26T14:25:56.359Z,7.80
2023-03-26T14:28:47.415Z,7.80
2023-03-26T14:31:41.824Z,7.80
2023-03-26T14:34:18.836Z,7.80
2023-03-26T14:37:07.262Z,7.60
2023-03-26T14:39:49.736Z,7.70
2023-03-26T14:42:33.907Z,7.80
2023-03-26T14:45:25.414Z,7.60
2023-03-26T14:48:31.483Z,7.60
2023-03-26T14:51:12.485Z,7.50
2023-03-26T14:53:44.551Z,7.40
2023-03-26T14:56:32.216Z,7.30
2023-03-26T14:59:43.452Z,7.30
2023-03-26T15:02:22.473Z,7.30
2023-03-26T15:05:04.156Z,7.30
2023-03-26T15:07:50.132Z,7.30
2023-03-26T15:10:47.317Z,7.40
2023-03-26T15:13:17.113Z,7.30
2023-03-26T15:16:19.974Z,7.40
2023-03-26T15:19:17.712Z,7.30
2023-03-26T15:21:53.709Z,7.30
2023-03-26T15:24:45.314Z,7.30
2023-03-26T15:27:38.538Z,7.40
2023-03-26T15:30:33.419Z,7.20
2023-03-26T15:33:35.727Z,7.20
2023-03-26T15:36:15.907Z,7.20
2023-03-26T15:39:00.037Z,7.20
2023-03-26T15:41:31.089Z,7.20
2023-03-26T15:44:24.938Z,7.40
2023-03-26T15:46:58.551Z,7.50
2023-03-26T15:49:42.610Z,7.50
2023-03-26T15:52:15.288Z,7.50
2023-03-26T15:55:01.244Z,7.50
2023-03-26T15:57:34.495Z,7.50
2023-03-26T16:00:23.317Z,7.60
2023-03-26T16:03:15.912Z,7.70
2023-03-26T16:06:06.103Z,7.70
2023-03-26T16:08:53.096Z,7.50
2023-03-26T16:11:47.728Z,7.50
2023-03-26T16:14:34.138Z,7.50
2023-03-26T16:17:12.413Z,7.40
2023-03-26T16:19:59.242Z,7.50
2023-03-26T16:22:42.978Z,7.50
2023-03-26T16:25:32.592Z,7.40
2023-03-26T16:28:29.179Z,7.20
2023-03-26T16:31:37.805Z,7.20
2023-03-26T16:34:07.803Z,7.30
2023-03-26T16:36:46.014Z,7.40
2023-03-26T16:39:18.677Z,7.30
2023-03-26T16:41:46.801Z,7.40
2023-03-26T16:44:44.117Z,7.40
2023-03-26T16:47:45.123Z,7.40
2023-03-26T16:50:33.113Z,7.20
2023-03-26T16:53:23.658Z,7.40
2023-03-26T16:55:58.520Z,7.40
2023-03-26T16:58:56.163Z,7.40
2023-03-26T17:01:32.523Z,7.50
2023-03-26T17:04:23.180Z,7.40
2023-03-26T17:07:08.644Z,7.40
2023-03-26T17:10:03.144Z,7.30
2023-03-26T17:12:58.967Z,7.40
2023-03-26T17:15:48.871Z,7.10
2023-03-26T17:18:32.141Z,7.20
2023-03-26T17:21:45.866Z,7.20
2023-03-26T17:24:35.669Z,7.40
2023-03-26T17:27:34.579Z,7.20
2023-03-26T17:30:05.090Z,7.10
2023-03-26T17:32:56.113Z,7.20
2023-03-26T17:35:47.396Z,7.00
2023-03-26T17:38:17.005Z,7.00
2023-03-26T17:40:49.617Z,6.90
2023-03-26T17:43:50.888Z,7.00
2023-03-26T17:46:36.288Z,7.00
2023-03-26T17:49:15.914Z,7.00
2023-03-26T17:51:58.186Z,6.90
2023-03-26T17:54:44.270Z,6.80
2023-03-26T17:57:40.059Z,6.80
2023-03-26T18:00:09.287Z,6.90
2023-03-26T18:02:43.331Z,6.80
2023-03-26T18:05:14.437Z,6.70
2023-03-26T18:08:06.555Z,6.80
2023-03-26T18:10:54.539Z,6.80
2023-03-26T18:13:42.730Z,6.80
2023-03-26T18:16:39.336Z,6.80
2023-03-26T18:19:17.693Z,6.70
2023-03-26T18:21:56.709Z,6.70
2023-03-26T18:24:36.474Z,6.70
2023-03-26T18:27:16.496Z,6.70
2023-03-26T18:30:01.644Z,6.70
2023-03-26T18:32:33.488Z,6.70
2023-03-26T18:35:18.751Z,6.60
2023-03-26T18:37:49.024Z,6.60
2023-03-26T18:40:20.945Z,6.60
2023-03-26T18:42:57.308Z,6.50
2023-03-26T18:45:33.628Z,6.70
2023-03-26T18:48:04.884Z,6.60
2023-03-26T18:50:37.229Z,6.60
2023-03-26T18:53:07.110Z,6.60
2023-03-26T18:55:39.428Z,6.60
2023-03-26T18:58:31.309Z,6.50
2023-03-26T19:01:04.281Z,6.50
2023-03-26T19:03:35.588Z,6.50
2023-03-26T19:06:04.635Z,6.30
2023-03-26T19:08:32.753Z,6.30
2023-03-26T19:11:04.368Z,6.40
2023-03-26T19:13:33.579Z,6.30
2023-03-26T19:16:04.908Z,6.30
2023-03-26T19:18:32.170Z,6.30
2023-03-26T19:21:01.408Z,6.20
2023-03-26T19:23:32.852Z,6.10
2023-03-26T19:26:02.467Z,6.10
2023-03-26T19:28:33.404Z,6.10
2023-03-26T19:31:08.737Z,6.10
2023-03-26T19:33:39.278Z,6.00
2023-03-26T19:36:19.381Z,6.00
2023-03-26T19:38:54.078Z,5.90
2023-03-26T19:41:25.051Z,5.90
2023-03-26T19:43:55.702Z,5.80
2023-03-26T19:46:23.628Z,5.70
2023-03-26T19:48:56.038Z,5.60
2023-03-26T19:51:35.669Z,5.50
2023-03-26T19:54:16.491Z,5.50
2023-03-26T19:56:43.423Z,5.50
2023-03-26T19:59:10.237Z,5.50
2023-03-26T20:01:37.429Z,5.50
2023-03-26T20:04:06.579Z,5.40
2023-03-26T20:06:43.812Z,5.30
2023-03-26T20:09:12.647Z,5.20
2023-03-26T20:11:40.649Z,5.10
2023-03-26T20:14:25.616Z,5.00
2023-03-26T20:16:52.918Z,4.90
2023-03-26T20:19:20.501Z,4.80
2023-03-26T20:21:47.184Z,4.80
2023-03-26T20:24:16.308Z,4.70
2023-03-26T20:26:44.651Z,4.80
2023-03-26T20:29:12.850Z,4.70
2023-03-26T20:31:41.648Z,4.70
2023-03-26T20:34:18.522Z,4.70
2023-03-26T20:36:46.182Z,4.70
2023-03-26T20:39:13.563Z,4.70
2023-03-26T20:41:45.145Z,4.50
2023-03-26T20:44:15.459Z,4.50
2023-03-26T20:46:43.836Z,4.50
2023-03-26T20:49:11.865Z,4.50
2023-03-26T20:51:41.819Z,4.50
2023-03-26T20:54:23.232Z,4.40
2023-03-26T20:56:50.759Z,4.30
2023-03-26T20:59:21.591Z,4.30
2023-03-26T21:01:49.904Z,4.20
2023-03-26T21:04:17.540Z,4.20
2023-03-26T21:06:44.853Z,4.20
2023-03-26T21:09:17.740Z,4.20
2023-03-26T21:12:01.444Z,4.10
2023-03-26T21:14:33.359Z,4.00
2023-03-26T21:17:02.356Z,4.00
2023-03-26T21:19:29.415Z,4.00
2023-03-26T21:22:00.177Z,4.00
2023-03-26T21:24:40.958Z,3.90
2023-03-26T21:27:19.238Z,3.90
2023-03-26T21:29:46.661Z,3.90
2023-03-26T21:32:14.713Z,3.90
2023-03-26T21:34:55.501Z,3.80
2023-03-26T21:37:25.054Z,3.80
2023-03-26T21:39:52.293Z,3.90
2023-03-26T21:42:19.378Z,3.80
2023-03-26T21:44:46.843Z,3.70
2023-03-26T21:47:14.125Z,3.70
2023-03-26T21:49:41.164Z,3.70
2023-03-26T21:52:15.305Z,3.70
2023-03-26T21:54:43.045Z,3.70
2023-03-26T21:57:29.122Z,3.70
2023-03-26T22:00:14.591Z,3.80
2023-03-26T22:03:00.291Z,3.80
2023-03-26T22:05:40.505Z,3.80
2023-03-26T22:08:23.204Z,3.70
2023-03-26T22:10:49.997Z,3.70
2023-03-26T22:13:16.731Z,3.80
2023-03-26T22:15:44.941Z,3.70
2023-03-26T22:18:11.840Z,3.80
2023-03-26T22:20:38.821Z,3.80
2023-03-26T22:23:06.731Z,3.70
2023-03-26T22:25:33.462Z,3.70
2023-03-26T22:28:00.526Z,3.70
2023-03-26T22:30:27.411Z,3.70
2023-03-26T22:32:54.186Z,3.60
2023-03-26T22:35:21.008Z,3.60
2023-03-26T22:37:47.833Z,3.50
2023-03-26T22:40:14.560Z,3.40
2023-03-26T22:42:41.775Z,3.40
2023-03-26T22:45:09.940Z,3.50
2023-03-26T22:47:37.306Z,3.40
2023-03-26T22:50:07.461Z,3.30
2023-03-26T22:52:36.464Z,3.40
2023-03-26T22:55:04.720Z,3.30
2023-03-26T22:57:31.445Z,3.30
2023-03-26T23:00:07.595Z,3.30
2023-03-26T23:02:34.354Z,3.30
2023-03-26T23:05:01.212Z,3.20
2023-03-26T23:07:28.090Z,3.10
2023-03-26T23:09:54.998Z,3.10
2023-03-26T23:12:22.030Z,3.10
2023-03-26T23:14:52.268Z,3.20
2023-03-26T23:17:19.787Z,3.30
2023-03-26T23:19:46.723Z,3.30
2023-03-26T23:22:13.546Z,3.30
2023-03-26T23:24:40.348Z,3.30
2023-03-26T23:27:07.108Z,3.30
2023-03-26T23:29:34.325Z,3.30
2023-03-26T23:32:01.207Z,3.30
2023-03-26T23:34:27.966Z,3.30
2023-03-26T23:36:54.730Z,3.30
2023-03-26T23:39:21.470Z,3.40
2023-03-26T23:41:48.231Z,3.30
2023-03-26T23:44:16.944Z,3.30
2023-03-26T23:46:44.158Z,3.30
2023-03-26T23:49:12.142Z,3.30
2023-03-26T23:51:38.961Z,3.30
2023-03-26T23:54:06.569Z,3.40
2023-03-26T23:56:33.412Z,3.30
2023-03-26T23:59:00.670Z,3.30
